Hood Army Air Field
KHLR : rendu visible

Aérodrome :











RETROUVEZ-NOUS SUR...

 
LOGIN :

S'inscrire | Disclaimer

   EN    FR    IT 

 









Légende :    VFR   VFR Marginal   IFR   IFR Intensif   IFR Très Intensif
Visi : 
Plafond : 
>= 8 km
>= 3000ft
5 à 8 km
1000 à 3000 ft
1500m à 5 km
500 à 1000 ft
800 à 1500m
200 à 500 ft
< 800m
< 200 ft
Symboles :   Orages  Brouillard  Fortes neiges  Fortes précipitations  Vent > 20 kt






- Altitude de l'aérodrome : 924 ft


KHLR - Hood Army Air Field

DERNIER METAR :
  • 201128Z AUTO 16011KT 8SM BKN013 OVC019 17/16 A2993 RMK AO2 SLP128

METARs EXPIRÉS :
  • 201123Z AUTO 17011KT 8SM SCT010 BKN016 17/16 A2994 RMK AO2 SLP131
  • 201113Z AUTO 16009KT 8SM BKN014 17/16 A2994 RMK AO2 SLP131
  • 201103Z AUTO 16008KT 8SM BKN015 17/16 A2993 RMK AO2 CIG 011V015 SLP128
  • 201013Z AUTO 16009KT 9SM OVC010 17/16 A2994 RMK AO2 SLP130
  • 200958Z AUTO 16008KT 8SM OVC009 17/16 A2994 RMK AO2 OVC V BKN SLP131 T01710156
  • 200913Z AUTO 16008KT 9SM BKN013 OVC020 17/15 A2995 RMK AO2 CIG 008V014 SLP133
  • 200858Z AUTO 16008KT 10SM OVC008 17/15 A2995 RMK AO2 LTG DSNT S SLP133 T01700153 53002

TAF N/A



MET'MAP, la Météo Aéronautique d'un coup d'oeil ! - Copyright ORBIFLY Décembre 2007 - Disclaimer

ORBIFLY MET'MAP TEAM :

Programmation & Développement : Alexandra Zaïnal
Conception & Développement : Baudouin d'Aumeries
Co-Programmation & Développement : Marc-Olivier Méhu
Soutien technique & logistique : Manuel Goepfert

Contact : metmap@orbifly.com




SOURCES & CREDITS :

   NOAA       Earth
Advisory